sensor_id;sensor_type;location;lat;lon;timestamp;P1;durP1;ratioP1;P2;durP2;ratioP2
69053;SDS011;56125;52.242;4.756;2023-07-28T00:02:31;5.77;;;2.20;;
69053;SDS011;56125;52.242;4.756;2023-07-28T00:07:32;5.10;;;1.83;;
69053;SDS011;56125;52.242;4.756;2023-07-28T00:12:35;5.77;;;2.00;;
69053;SDS011;56125;52.242;4.756;2023-07-28T00:17:36;3.50;;;2.40;;
69053;SDS011;56125;52.242;4.756;2023-07-28T00:22:37;3.07;;;1.80;;
69053;SDS011;56125;52.242;4.756;2023-07-28T00:27:38;3.58;;;1.73;;
69053;SDS011;56125;52.242;4.756;2023-07-28T00:32:39;4.33;;;2.10;;
69053;SDS011;56125;52.242;4.756;2023-07-28T00:37:40;4.45;;;2.00;;
69053;SDS011;56125;52.242;4.756;2023-07-28T00:42:41;3.13;;;1.83;;
69053;SDS011;56125;52.242;4.756;2023-07-28T00:47:43;4.28;;;2.30;;
69053;SDS011;56125;52.242;4.756;2023-07-28T00:52:44;4.07;;;2.03;;
69053;SDS011;56125;52.242;4.756;2023-07-28T00:57:46;6.72;;;2.65;;
69053;SDS011;56125;52.242;4.756;2023-07-28T01:02:47;4.93;;;2.10;;
69053;SDS011;56125;52.242;4.756;2023-07-28T01:12:56;4.33;;;2.07;;
69053;SDS011;56125;52.242;4.756;2023-07-28T01:17:57;5.72;;;2.17;;
69053;SDS011;56125;52.242;4.756;2023-07-28T01:23:08;6.80;;;2.40;;
69053;SDS011;56125;52.242;4.756;2023-07-28T01:28:15;4.22;;;2.03;;
69053;SDS011;56125;52.242;4.756;2023-07-28T01:33:17;6.20;;;2.40;;
69053;SDS011;56125;52.242;4.756;2023-07-28T01:38:18;4.35;;;2.03;;
69053;SDS011;56125;52.242;4.756;2023-07-28T01:43:19;6.43;;;2.30;;
69053;SDS011;56125;52.242;4.756;2023-07-28T01:48:20;3.92;;;2.45;;
69053;SDS011;56125;52.242;4.756;2023-07-28T01:53:21;6.60;;;2.00;;
69053;SDS011;56125;52.242;4.756;2023-07-28T01:58:22;3.97;;;2.40;;
69053;SDS011;56125;52.242;4.756;2023-07-28T02:03:23;4.43;;;2.20;;
69053;SDS011;56125;52.242;4.756;2023-07-28T02:08:24;5.10;;;2.80;;
69053;SDS011;56125;52.242;4.756;2023-07-28T02:13:25;6.97;;;2.37;;
69053;SDS011;56125;52.242;4.756;2023-07-28T02:18:26;3.58;;;2.38;;
69053;SDS011;56125;52.242;4.756;2023-07-28T02:23:27;3.87;;;2.10;;
69053;SDS011;56125;52.242;4.756;2023-07-28T02:28:28;6.15;;;2.60;;
69053;SDS011;56125;52.242;4.756;2023-07-28T02:33:29;3.43;;;2.50;;
69053;SDS011;56125;52.242;4.756;2023-07-28T02:38:32;7.10;;;2.22;;
69053;SDS011;56125;52.242;4.756;2023-07-28T02:43:33;5.23;;;2.30;;
69053;SDS011;56125;52.242;4.756;2023-07-28T02:48:34;6.80;;;2.60;;
69053;SDS011;56125;52.242;4.756;2023-07-28T02:53:35;4.60;;;2.50;;
69053;SDS011;56125;52.242;4.756;2023-07-28T02:58:36;6.22;;;2.90;;
69053;SDS011;56125;52.242;4.756;2023-07-28T03:03:37;7.67;;;2.70;;
69053;SDS011;56125;52.242;4.756;2023-07-28T03:08:38;5.75;;;2.55;;
69053;SDS011;56125;52.242;4.756;2023-07-28T03:13:39;5.30;;;2.53;;
69053;SDS011;56125;52.242;4.756;2023-07-28T03:18:40;7.45;;;2.50;;
69053;SDS011;56125;52.242;4.756;2023-07-28T03:23:41;8.07;;;2.23;;
69053;SDS011;56125;52.242;4.756;2023-07-28T03:28:42;7.93;;;2.70;;
69053;SDS011;56125;52.242;4.756;2023-07-28T03:33:43;3.93;;;2.43;;
69053;SDS011;56125;52.242;4.756;2023-07-28T03:38:44;7.47;;;2.60;;
69053;SDS011;56125;52.242;4.756;2023-07-28T03:43:45;5.87;;;2.83;;
69053;SDS011;56125;52.242;4.756;2023-07-28T03:48:46;6.25;;;2.60;;
69053;SDS011;56125;52.242;4.756;2023-07-28T03:53:47;5.37;;;2.73;;
69053;SDS011;56125;52.242;4.756;2023-07-28T03:58:48;4.90;;;2.35;;
69053;SDS011;56125;52.242;4.756;2023-07-28T04:03:49;4.90;;;2.57;;
69053;SDS011;56125;52.242;4.756;2023-07-28T04:08:50;6.88;;;2.90;;
69053;SDS011;56125;52.242;4.756;2023-07-28T04:13:51;5.33;;;2.43;;
69053;SDS011;56125;52.242;4.756;2023-07-28T04:18:52;6.10;;;2.63;;
69053;SDS011;56125;52.242;4.756;2023-07-28T04:23:53;4.20;;;2.60;;
69053;SDS011;56125;52.242;4.756;2023-07-28T04:28:54;5.10;;;2.55;;
69053;SDS011;56125;52.242;4.756;2023-07-28T04:33:55;7.03;;;2.70;;
69053;SDS011;56125;52.242;4.756;2023-07-28T04:38:56;5.75;;;2.50;;
69053;SDS011;56125;52.242;4.756;2023-07-28T04:43:57;6.13;;;2.83;;
69053;SDS011;56125;52.242;4.756;2023-07-28T04:48:58;8.45;;;2.95;;
69053;SDS011;56125;52.242;4.756;2023-07-28T04:53:59;5.27;;;3.17;;
69053;SDS011;56125;52.242;4.756;2023-07-28T04:59:01;5.28;;;2.40;;
69053;SDS011;56125;52.242;4.756;2023-07-28T05:04:02;7.97;;;3.20;;
69053;SDS011;56125;52.242;4.756;2023-07-28T05:09:03;7.40;;;3.03;;
69053;SDS011;56125;52.242;4.756;2023-07-28T05:14:04;4.23;;;2.40;;
69053;SDS011;56125;52.242;4.756;2023-07-28T05:19:06;7.00;;;3.00;;
69053;SDS011;56125;52.242;4.756;2023-07-28T05:24:10;5.10;;;2.83;;
69053;SDS011;56125;52.242;4.756;2023-07-28T05:29:11;7.97;;;3.13;;
69053;SDS011;56125;52.242;4.756;2023-07-28T05:34:12;6.83;;;3.07;;
69053;SDS011;56125;52.242;4.756;2023-07-28T05:39:13;9.52;;;2.97;;
69053;SDS011;56125;52.242;4.756;2023-07-28T05:44:14;4.93;;;3.00;;
69053;SDS011;56125;52.242;4.756;2023-07-28T05:49:15;6.88;;;3.00;;
69053;SDS011;56125;52.242;4.756;2023-07-28T05:54:16;12.17;;;3.43;;
69053;SDS011;56125;52.242;4.756;2023-07-28T05:59:17;6.10;;;3.45;;
69053;SDS011;56125;52.242;4.756;2023-07-28T06:04:18;6.43;;;3.13;;
69053;SDS011;56125;52.242;4.756;2023-07-28T06:09:19;6.78;;;3.08;;
69053;SDS011;56125;52.242;4.756;2023-07-28T06:14:20;7.37;;;2.90;;
69053;SDS011;56125;52.242;4.756;2023-07-28T06:19:21;6.15;;;3.50;;
69053;SDS011;56125;52.242;4.756;2023-07-28T06:24:24;6.50;;;3.53;;
69053;SDS011;56125;52.242;4.756;2023-07-28T06:29:25;8.27;;;3.83;;
69053;SDS011;56125;52.242;4.756;2023-07-28T06:34:26;11.17;;;3.77;;
69053;SDS011;56125;52.242;4.756;2023-07-28T06:39:27;8.93;;;4.28;;
69053;SDS011;56125;52.242;4.756;2023-07-28T06:44:30;9.77;;;3.93;;
69053;SDS011;56125;52.242;4.756;2023-07-28T06:49:31;11.30;;;4.30;;
69053;SDS011;56125;52.242;4.756;2023-07-28T06:54:32;10.67;;;4.73;;
69053;SDS011;56125;52.242;4.756;2023-07-28T06:59:34;9.88;;;4.47;;
69053;SDS011;56125;52.242;4.756;2023-07-28T07:04:35;10.23;;;4.00;;
69053;SDS011;56125;52.242;4.756;2023-07-28T07:09:36;10.07;;;3.63;;
69053;SDS011;56125;52.242;4.756;2023-07-28T07:14:37;12.73;;;4.37;;
69053;SDS011;56125;52.242;4.756;2023-07-28T07:19:38;8.40;;;3.70;;
69053;SDS011;56125;52.242;4.756;2023-07-28T07:24:39;11.73;;;4.10;;
69053;SDS011;56125;52.242;4.756;2023-07-28T07:29:40;6.57;;;3.70;;
69053;SDS011;56125;52.242;4.756;2023-07-28T07:34:41;13.43;;;3.63;;
69053;SDS011;56125;52.242;4.756;2023-07-28T07:39:42;11.15;;;4.15;;
69053;SDS011;56125;52.242;4.756;2023-07-28T07:44:44;11.43;;;3.77;;
69053;SDS011;56125;52.242;4.756;2023-07-28T07:49:45;8.10;;;3.88;;
69053;SDS011;56125;52.242;4.756;2023-07-28T07:54:46;7.60;;;3.83;;
69053;SDS011;56125;52.242;4.756;2023-07-28T07:59:47;7.50;;;4.78;;
69053;SDS011;56125;52.242;4.756;2023-07-28T08:04:48;6.30;;;3.30;;
69053;SDS011;56125;52.242;4.756;2023-07-28T08:09:50;9.75;;;3.75;;
69053;SDS011;56125;52.242;4.756;2023-07-28T08:14:51;6.77;;;3.70;;
69053;SDS011;56125;52.242;4.756;2023-07-28T08:19:52;10.18;;;4.32;;
69053;SDS011;56125;52.242;4.756;2023-07-28T08:24:53;6.23;;;3.70;;
69053;SDS011;56125;52.242;4.756;2023-07-28T08:29:54;8.18;;;3.38;;
69053;SDS011;56125;52.242;4.756;2023-07-28T08:34:55;7.07;;;3.17;;
69053;SDS011;56125;52.242;4.756;2023-07-28T08:39:56;6.93;;;3.28;;
69053;SDS011;56125;52.242;4.756;2023-07-28T08:44:57;10.10;;;2.83;;
69053;SDS011;56125;52.242;4.756;2023-07-28T08:49:58;7.13;;;3.63;;
69053;SDS011;56125;52.242;4.756;2023-07-28T08:54:59;8.57;;;3.10;;
69053;SDS011;56125;52.242;4.756;2023-07-28T09:00:07;8.25;;;3.25;;
69053;SDS011;56125;52.242;4.756;2023-07-28T09:05:18;4.50;;;3.07;;
69053;SDS011;56125;52.242;4.756;2023-07-28T09:10:24;8.65;;;2.90;;
69053;SDS011;56125;52.242;4.756;2023-07-28T09:15:25;8.40;;;2.70;;
69053;SDS011;56125;52.242;4.756;2023-07-28T09:20:32;5.50;;;2.90;;
69053;SDS011;56125;52.242;4.756;2023-07-28T09:25:37;5.90;;;3.10;;
69053;SDS011;56125;52.242;4.756;2023-07-28T09:30:48;5.78;;;2.90;;
69053;SDS011;56125;52.242;4.756;2023-07-28T09:35:50;7.70;;;3.20;;
69053;SDS011;56125;52.242;4.756;2023-07-28T09:40:51;4.93;;;2.88;;
69053;SDS011;56125;52.242;4.756;2023-07-28T09:45:52;6.30;;;3.10;;
69053;SDS011;56125;52.242;4.756;2023-07-28T09:50:55;6.72;;;2.85;;
69053;SDS011;56125;52.242;4.756;2023-07-28T09:55:58;6.73;;;3.30;;
69053;SDS011;56125;52.242;4.756;2023-07-28T10:01:00;8.27;;;3.10;;
69053;SDS011;56125;52.242;4.756;2023-07-28T10:06:02;5.40;;;2.83;;
69053;SDS011;56125;52.242;4.756;2023-07-28T10:11:04;5.85;;;3.25;;
69053;SDS011;56125;52.242;4.756;2023-07-28T10:16:05;8.03;;;3.57;;
69053;SDS011;56125;52.242;4.756;2023-07-28T10:21:09;5.35;;;3.10;;
69053;SDS011;56125;52.242;4.756;2023-07-28T10:26:16;4.63;;;3.03;;
69053;SDS011;56125;52.242;4.756;2023-07-28T10:31:35;5.93;;;2.78;;
69053;SDS011;56125;52.242;4.756;2023-07-28T10:36:37;6.67;;;3.07;;
69053;SDS011;56125;52.242;4.756;2023-07-28T10:41:38;9.40;;;3.72;;
69053;SDS011;56125;52.242;4.756;2023-07-28T10:46:39;7.23;;;3.43;;
69053;SDS011;56125;52.242;4.756;2023-07-28T10:51:40;6.22;;;3.40;;
69053;SDS011;56125;52.242;4.756;2023-07-28T10:56:41;6.90;;;3.50;;
69053;SDS011;56125;52.242;4.756;2023-07-28T11:01:43;8.52;;;3.78;;
69053;SDS011;56125;52.242;4.756;2023-07-28T11:06:44;7.40;;;4.07;;
69053;SDS011;56125;52.242;4.756;2023-07-28T11:11:49;7.07;;;3.30;;
69053;SDS011;56125;52.242;4.756;2023-07-28T11:16:51;6.57;;;3.27;;
69053;SDS011;56125;52.242;4.756;2023-07-28T11:21:54;5.13;;;3.03;;
69053;SDS011;56125;52.242;4.756;2023-07-28T11:26:56;5.03;;;3.10;;
69053;SDS011;56125;52.242;4.756;2023-07-28T11:31:58;6.20;;;2.92;;
69053;SDS011;56125;52.242;4.756;2023-07-28T11:37:00;4.60;;;2.87;;
69053;SDS011;56125;52.242;4.756;2023-07-28T11:42:03;5.50;;;3.05;;
69053;SDS011;56125;52.242;4.756;2023-07-28T11:47:05;6.00;;;3.03;;
69053;SDS011;56125;52.242;4.756;2023-07-28T11:52:06;3.40;;;2.53;;
69053;SDS011;56125;52.242;4.756;2023-07-28T11:57:08;8.23;;;2.70;;
69053;SDS011;56125;52.242;4.756;2023-07-28T12:02:09;5.70;;;2.85;;
69053;SDS011;56125;52.242;4.756;2023-07-28T12:07:11;5.27;;;2.70;;
69053;SDS011;56125;52.242;4.756;2023-07-28T12:12:18;6.15;;;3.35;;
69053;SDS011;56125;52.242;4.756;2023-07-28T12:17:23;5.87;;;2.83;;
69053;SDS011;56125;52.242;4.756;2023-07-28T12:22:29;7.45;;;3.15;;
69053;SDS011;56125;52.242;4.756;2023-07-28T12:27:31;5.67;;;2.77;;
69053;SDS011;56125;52.242;4.756;2023-07-28T12:32:32;6.63;;;3.17;;
69053;SDS011;56125;52.242;4.756;2023-07-28T12:37:33;4.87;;;2.80;;
69053;SDS011;56125;52.242;4.756;2023-07-28T12:42:34;5.07;;;2.90;;
69053;SDS011;56125;52.242;4.756;2023-07-28T12:47:35;5.77;;;2.83;;
69053;SDS011;56125;52.242;4.756;2023-07-28T12:52:37;4.90;;;3.00;;
69053;SDS011;56125;52.242;4.756;2023-07-28T12:57:38;6.00;;;3.00;;
69053;SDS011;56125;52.242;4.756;2023-07-28T13:02:39;6.28;;;2.83;;
69053;SDS011;56125;52.242;4.756;2023-07-28T13:07:41;6.40;;;3.00;;
69053;SDS011;56125;52.242;4.756;2023-07-28T13:12:42;6.43;;;2.80;;
69053;SDS011;56125;52.242;4.756;2023-07-28T13:17:43;7.37;;;3.17;;
69053;SDS011;56125;52.242;4.756;2023-07-28T13:22:44;4.85;;;2.90;;
69053;SDS011;56125;52.242;4.756;2023-07-28T13:27:46;3.80;;;2.70;;
69053;SDS011;56125;52.242;4.756;2023-07-28T13:32:47;5.15;;;2.47;;
69053;SDS011;56125;52.242;4.756;2023-07-28T13:37:48;5.73;;;2.60;;
69053;SDS011;56125;52.242;4.756;2023-07-28T13:42:49;6.47;;;2.35;;
69053;SDS011;56125;52.242;4.756;2023-07-28T13:47:50;4.20;;;2.50;;
69053;SDS011;56125;52.242;4.756;2023-07-28T13:52:51;5.10;;;2.63;;
69053;SDS011;56125;52.242;4.756;2023-07-28T13:57:52;7.70;;;3.10;;
69053;SDS011;56125;52.242;4.756;2023-07-28T14:02:53;5.95;;;2.78;;
69053;SDS011;56125;52.242;4.756;2023-07-28T14:07:54;5.47;;;4.10;;
69053;SDS011;56125;52.242;4.756;2023-07-28T14:12:55;3.53;;;2.60;;
69053;SDS011;56125;52.242;4.756;2023-07-28T14:17:56;2.50;;;2.30;;
69053;SDS011;56125;52.242;4.756;2023-07-28T14:22:59;3.22;;;2.25;;
69053;SDS011;56125;52.242;4.756;2023-07-28T14:28:01;5.87;;;2.80;;
69053;SDS011;56125;52.242;4.756;2023-07-28T14:33:02;3.35;;;2.35;;
69053;SDS011;56125;52.242;4.756;2023-07-28T14:38:03;4.50;;;2.30;;
69053;SDS011;56125;52.242;4.756;2023-07-28T14:43:04;3.70;;;2.63;;
69053;SDS011;56125;52.242;4.756;2023-07-28T14:48:06;4.87;;;2.30;;
69053;SDS011;56125;52.242;4.756;2023-07-28T14:58:37;5.60;;;2.50;;
69053;SDS011;56125;52.242;4.756;2023-07-28T15:03:38;4.38;;;2.58;;
69053;SDS011;56125;52.242;4.756;2023-07-28T15:08:40;5.13;;;2.40;;
69053;SDS011;56125;52.242;4.756;2023-07-28T15:13:42;3.53;;;2.53;;
69053;SDS011;56125;52.242;4.756;2023-07-28T15:18:43;3.33;;;2.17;;
69053;SDS011;56125;52.242;4.756;2023-07-28T15:23:45;3.40;;;2.08;;
69053;SDS011;56125;52.242;4.756;2023-07-28T15:28:46;3.47;;;2.00;;
69053;SDS011;56125;52.242;4.756;2023-07-28T15:33:47;2.08;;;1.67;;
69053;SDS011;56125;52.242;4.756;2023-07-28T15:38:48;2.80;;;1.43;;
69053;SDS011;56125;52.242;4.756;2023-07-28T15:43:49;2.78;;;1.40;;
69053;SDS011;56125;52.242;4.756;2023-07-28T15:48:50;2.57;;;1.60;;
69053;SDS011;56125;52.242;4.756;2023-07-28T15:53:51;2.95;;;2.00;;
69053;SDS011;56125;52.242;4.756;2023-07-28T15:58:52;3.83;;;2.07;;
69053;SDS011;56125;52.242;4.756;2023-07-28T16:03:53;3.10;;;2.10;;
69053;SDS011;56125;52.242;4.756;2023-07-28T16:08:54;8.00;;;3.10;;
69053;SDS011;56125;52.242;4.756;2023-07-28T16:13:55;5.38;;;3.42;;
69053;SDS011;56125;52.242;4.756;2023-07-28T16:18:56;6.97;;;3.53;;
69053;SDS011;56125;52.242;4.756;2023-07-28T16:23:57;5.90;;;3.90;;
69053;SDS011;56125;52.242;4.756;2023-07-28T16:28:58;5.57;;;3.70;;
69053;SDS011;56125;52.242;4.756;2023-07-28T16:33:59;5.88;;;4.18;;
69053;SDS011;56125;52.242;4.756;2023-07-28T16:39:00;7.90;;;4.70;;
69053;SDS011;56125;52.242;4.756;2023-07-28T16:44:02;8.50;;;4.43;;
69053;SDS011;56125;52.242;4.756;2023-07-28T16:49:03;5.17;;;3.87;;
69053;SDS011;56125;52.242;4.756;2023-07-28T16:54:04;4.72;;;3.20;;
69053;SDS011;56125;52.242;4.756;2023-07-28T16:59:05;4.27;;;2.90;;
69053;SDS011;56125;52.242;4.756;2023-07-28T17:04:06;4.13;;;2.28;;
69053;SDS011;56125;52.242;4.756;2023-07-28T17:09:07;3.47;;;2.53;;
69053;SDS011;56125;52.242;4.756;2023-07-28T17:14:08;2.45;;;2.00;;
69053;SDS011;56125;52.242;4.756;2023-07-28T17:19:09;3.17;;;2.00;;
69053;SDS011;56125;52.242;4.756;2023-07-28T17:24:10;2.47;;;1.70;;
69053;SDS011;56125;52.242;4.756;2023-07-28T17:29:13;5.67;;;2.00;;
69053;SDS011;56125;52.242;4.756;2023-07-28T17:34:14;2.92;;;1.67;;
69053;SDS011;56125;52.242;4.756;2023-07-28T17:39:15;3.00;;;1.80;;
69053;SDS011;56125;52.242;4.756;2023-07-28T17:44:18;2.00;;;1.70;;
69053;SDS011;56125;52.242;4.756;2023-07-28T17:49:19;3.40;;;1.80;;
69053;SDS011;56125;52.242;4.756;2023-07-28T17:54:20;2.05;;;1.63;;
69053;SDS011;56125;52.242;4.756;2023-07-28T17:59:21;1.73;;;1.47;;
69053;SDS011;56125;52.242;4.756;2023-07-28T18:04:23;3.78;;;1.77;;
69053;SDS011;56125;52.242;4.756;2023-07-28T18:09:24;2.47;;;1.80;;
69053;SDS011;56125;52.242;4.756;2023-07-28T18:14:25;2.90;;;1.50;;
69053;SDS011;56125;52.242;4.756;2023-07-28T18:19:26;3.53;;;1.60;;
69053;SDS011;56125;52.242;4.756;2023-07-28T18:24:27;1.88;;;1.20;;
69053;SDS011;56125;52.242;4.756;2023-07-28T18:29:28;2.63;;;1.40;;
69053;SDS011;56125;52.242;4.756;2023-07-28T18:34:29;3.17;;;1.48;;
69053;SDS011;56125;52.242;4.756;2023-07-28T18:39:30;2.47;;;1.77;;
69053;SDS011;56125;52.242;4.756;2023-07-28T18:44:32;1.70;;;1.30;;
69053;SDS011;56125;52.242;4.756;2023-07-28T18:49:33;3.17;;;1.10;;
69053;SDS011;56125;52.242;4.756;2023-07-28T18:54:34;2.20;;;1.30;;
69053;SDS011;56125;52.242;4.756;2023-07-28T18:59:35;1.53;;;1.10;;
69053;SDS011;56125;52.242;4.756;2023-07-28T19:04:36;1.35;;;1.00;;
69053;SDS011;56125;52.242;4.756;2023-07-28T19:09:37;1.87;;;1.03;;
69053;SDS011;56125;52.242;4.756;2023-07-28T19:14:38;1.35;;;1.00;;
69053;SDS011;56125;52.242;4.756;2023-07-28T19:19:39;2.37;;;1.37;;
69053;SDS011;56125;52.242;4.756;2023-07-28T19:24:41;1.92;;;1.30;;
69053;SDS011;56125;52.242;4.756;2023-07-28T19:29:42;1.73;;;1.20;;
69053;SDS011;56125;52.242;4.756;2023-07-28T19:34:44;2.88;;;1.10;;
69053;SDS011;56125;52.242;4.756;2023-07-28T19:39:45;2.40;;;1.10;;
69053;SDS011;56125;52.242;4.756;2023-07-28T19:44:49;2.28;;;1.17;;
69053;SDS011;56125;52.242;4.756;2023-07-28T19:49:50;2.33;;;1.00;;
69053;SDS011;56125;52.242;4.756;2023-07-28T19:54:51;2.45;;;1.13;;
69053;SDS011;56125;52.242;4.756;2023-07-28T19:59:52;2.27;;;1.00;;
69053;SDS011;56125;52.242;4.756;2023-07-28T20:04:53;1.50;;;1.20;;
69053;SDS011;56125;52.242;4.756;2023-07-28T20:09:55;1.23;;;0.90;;
69053;SDS011;56125;52.242;4.756;2023-07-28T20:14:56;1.58;;;1.10;;
69053;SDS011;56125;52.242;4.756;2023-07-28T20:19:58;1.53;;;1.30;;
69053;SDS011;56125;52.242;4.756;2023-07-28T20:24:59;3.15;;;1.00;;
69053;SDS011;56125;52.242;4.756;2023-07-28T20:30:00;3.23;;;1.17;;
69053;SDS011;56125;52.242;4.756;2023-07-28T20:35:01;1.25;;;0.93;;
69053;SDS011;56125;52.242;4.756;2023-07-28T20:40:05;1.43;;;0.90;;
69053;SDS011;56125;52.242;4.756;2023-07-28T20:45:06;2.40;;;1.05;;
69053;SDS011;56125;52.242;4.756;2023-07-28T20:50:07;1.10;;;0.90;;
69053;SDS011;56125;52.242;4.756;2023-07-28T20:55:09;1.38;;;0.90;;
69053;SDS011;56125;52.242;4.756;2023-07-28T21:00:10;2.10;;;1.10;;
69053;SDS011;56125;52.242;4.756;2023-07-28T21:05:11;2.58;;;0.90;;
69053;SDS011;56125;52.242;4.756;2023-07-28T21:10:12;2.97;;;1.10;;
69053;SDS011;56125;52.242;4.756;2023-07-28T21:15:13;1.67;;;0.98;;
69053;SDS011;56125;52.242;4.756;2023-07-28T21:20:14;1.23;;;1.00;;
69053;SDS011;56125;52.242;4.756;2023-07-28T21:25:16;1.42;;;1.08;;
69053;SDS011;56125;52.242;4.756;2023-07-28T21:30:17;1.80;;;0.90;;
69053;SDS011;56125;52.242;4.756;2023-07-28T21:35:18;1.17;;;0.73;;
69053;SDS011;56125;52.242;4.756;2023-07-28T21:40:19;2.37;;;1.00;;
69053;SDS011;56125;52.242;4.756;2023-07-28T21:45:20;1.23;;;0.80;;
69053;SDS011;56125;52.242;4.756;2023-07-28T21:50:21;1.43;;;0.93;;
69053;SDS011;56125;52.242;4.756;2023-07-28T21:55:22;1.63;;;0.90;;
69053;SDS011;56125;52.242;4.756;2023-07-28T22:00:23;1.70;;;1.00;;
69053;SDS011;56125;52.242;4.756;2023-07-28T22:05:24;1.73;;;0.90;;
69053;SDS011;56125;52.242;4.756;2023-07-28T22:10:25;2.47;;;0.90;;
69053;SDS011;56125;52.242;4.756;2023-07-28T22:15:26;1.67;;;1.00;;
69053;SDS011;56125;52.242;4.756;2023-07-28T22:20:31;2.90;;;1.10;;
69053;SDS011;56125;52.242;4.756;2023-07-28T22:25:41;1.77;;;1.00;;
69053;SDS011;56125;52.242;4.756;2023-07-28T22:30:43;1.20;;;0.87;;
69053;SDS011;56125;52.242;4.756;2023-07-28T22:35:44;2.25;;;1.00;;
69053;SDS011;56125;52.242;4.756;2023-07-28T22:40:45;2.77;;;1.00;;
69053;SDS011;56125;52.242;4.756;2023-07-28T22:45:46;1.30;;;0.95;;
69053;SDS011;56125;52.242;4.756;2023-07-28T22:50:47;1.60;;;0.93;;
69053;SDS011;56125;52.242;4.756;2023-07-28T22:55:48;3.05;;;1.10;;
69053;SDS011;56125;52.242;4.756;2023-07-28T23:00:49;1.73;;;1.03;;
69053;SDS011;56125;52.242;4.756;2023-07-28T23:05:51;1.65;;;0.60;;
69053;SDS011;56125;52.242;4.756;2023-07-28T23:10:52;1.67;;;0.80;;
69053;SDS011;56125;52.242;4.756;2023-07-28T23:15:54;1.65;;;1.02;;
69053;SDS011;56125;52.242;4.756;2023-07-28T23:20:55;1.30;;;0.90;;
69053;SDS011;56125;52.242;4.756;2023-07-28T23:25:56;2.45;;;0.93;;
69053;SDS011;56125;52.242;4.756;2023-07-28T23:31:09;2.10;;;0.70;;
69053;SDS011;56125;52.242;4.756;2023-07-28T23:36:17;1.23;;;0.75;;
69053;SDS011;56125;52.242;4.756;2023-07-28T23:41:18;1.23;;;0.90;;
69053;SDS011;56125;52.242;4.756;2023-07-28T23:46:19;2.13;;;1.17;;
69053;SDS011;56125;52.242;4.756;2023-07-28T23:51:20;2.20;;;0.90;;
69053;SDS011;56125;52.242;4.756;2023-07-28T23:56:21;2.00;;;0.80;;
